sensor_id;sensor_type;location;lat;lon;timestamp;pressure;altitude;pressure_sealevel;temperature;humidity
41078;BME280;26823;42.662;23.352;2023-07-09T00:00:49;95206.75;;;19.44;57.77
41078;BME280;26823;42.662;23.352;2023-07-09T00:03:15;95208.03;;;19.46;57.60
41078;BME280;26823;42.662;23.352;2023-07-09T00:05:42;95213.38;;;19.43;57.62
41078;BME280;26823;42.662;23.352;2023-07-09T00:08:28;95202.41;;;19.43;57.39
41078;BME280;26823;42.662;23.352;2023-07-09T00:10:55;95210.63;;;19.43;58.28
41078;BME280;26823;42.662;23.352;2023-07-09T00:13:23;95208.84;;;19.38;58.74
41078;BME280;26823;42.662;23.352;2023-07-09T00:15:49;95203.25;;;19.26;58.73
41078;BME280;26823;42.662;23.352;2023-07-09T00:18:14;95180.34;;;19.13;58.67
41078;BME280;26823;42.662;23.352;2023-07-09T00:20:40;95193.91;;;19.18;58.58
41078;BME280;26823;42.662;23.352;2023-07-09T00:23:09;95189.72;;;19.12;58.59
41078;BME280;26823;42.662;23.352;2023-07-09T00:25:34;95193.25;;;19.12;60.16
41078;BME280;26823;42.662;23.352;2023-07-09T00:28:01;95185.97;;;19.07;59.37
41078;BME280;26823;42.662;23.352;2023-07-09T00:30:27;95191.34;;;19.04;59.18
41078;BME280;26823;42.662;23.352;2023-07-09T00:32:52;95199.06;;;19.02;58.86
41078;BME280;26823;42.662;23.352;2023-07-09T00:35:19;95196.97;;;18.99;59.64
41078;BME280;26823;42.662;23.352;2023-07-09T00:37:46;95176.16;;;18.89;59.58
41078;BME280;26823;42.662;23.352;2023-07-09T00:40:16;95189.88;;;18.98;59.34
41078;BME280;26823;42.662;23.352;2023-07-09T00:42:48;95177.78;;;18.90;59.01
41078;BME280;26823;42.662;23.352;2023-07-09T00:45:23;95196.16;;;18.98;59.22
41078;BME280;26823;42.662;23.352;2023-07-09T00:53:10;95183.28;;;18.90;58.71
41078;BME280;26823;42.662;23.352;2023-07-09T00:55:41;95180.66;;;18.94;59.22
41078;BME280;26823;42.662;23.352;2023-07-09T00:58:11;95178.09;;;18.97;58.80
41078;BME280;26823;42.662;23.352;2023-07-09T01:00:44;95179.53;;;18.95;58.79
41078;BME280;26823;42.662;23.352;2023-07-09T01:05:51;95143.75;;;18.65;59.06
41078;BME280;26823;42.662;23.352;2023-07-09T01:08:18;95192.44;;;18.85;58.92
41078;BME280;26823;42.662;23.352;2023-07-09T01:10:44;95185.66;;;18.83;59.60
41078;BME280;26823;42.662;23.352;2023-07-09T01:13:10;95187.75;;;18.86;59.88
41078;BME280;26823;42.662;23.352;2023-07-09T01:15:36;95181.47;;;18.77;60.24
41078;BME280;26823;42.662;23.352;2023-07-09T01:18:03;95181.47;;;18.77;59.51
41078;BME280;26823;42.662;23.352;2023-07-09T01:20:29;95170.81;;;18.66;59.76
41078;BME280;26823;42.662;23.352;2023-07-09T01:22:54;95180.81;;;18.62;59.59
41078;BME280;26823;42.662;23.352;2023-07-09T01:25:23;95179.81;;;18.58;59.31
41078;BME280;26823;42.662;23.352;2023-07-09T01:27:49;95169.38;;;18.60;60.28
41078;BME280;26823;42.662;23.352;2023-07-09T01:30:35;95165.81;;;18.51;59.54
41078;BME280;26823;42.662;23.352;2023-07-09T01:33:01;95171.59;;;18.49;60.04
41078;BME280;26823;42.662;23.352;2023-07-09T01:35:30;95165.47;;;18.44;60.13
41078;BME280;26823;42.662;23.352;2023-07-09T01:37:56;95161.63;;;18.45;59.83
41078;BME280;26823;42.662;23.352;2023-07-09T01:40:23;95173.53;;;18.49;60.21
41078;BME280;26823;42.662;23.352;2023-07-09T01:42:51;95170.31;;;18.47;60.01
41078;BME280;26823;42.662;23.352;2023-07-09T01:45:17;95175.66;;;18.43;60.45
41078;BME280;26823;42.662;23.352;2023-07-09T01:47:43;95169.31;;;18.34;60.57
41078;BME280;26823;42.662;23.352;2023-07-09T01:50:10;95158.84;;;18.27;60.72
41078;BME280;26823;42.662;23.352;2023-07-09T01:52:37;95175.63;;;18.34;61.28
41078;BME280;26823;42.662;23.352;2023-07-09T01:55:04;95184.81;;;18.38;60.53
41078;BME280;26823;42.662;23.352;2023-07-09T01:57:30;95195.25;;;18.36;60.70
41078;BME280;26823;42.662;23.352;2023-07-09T02:00:04;95189.63;;;18.33;60.75
41078;BME280;26823;42.662;23.352;2023-07-09T02:02:30;95192.84;;;18.35;61.60
41078;BME280;26823;42.662;23.352;2023-07-09T02:04:57;95180.44;;;18.29;61.78
41078;BME280;26823;42.662;23.352;2023-07-09T02:07:24;95189.75;;;18.28;61.63
41078;BME280;26823;42.662;23.352;2023-07-09T02:09:50;95185.72;;;18.25;60.60
41078;BME280;26823;42.662;23.352;2023-07-09T02:12:16;95193.50;;;18.32;61.14
41078;BME280;26823;42.662;23.352;2023-07-09T02:14:43;95193.78;;;18.30;61.07
41078;BME280;26823;42.662;23.352;2023-07-09T02:17:10;95181.22;;;18.20;60.67
41078;BME280;26823;42.662;23.352;2023-07-09T02:19:36;95196.34;;;18.26;61.72
41078;BME280;26823;42.662;23.352;2023-07-09T02:22:03;95189.91;;;18.22;61.76
41078;BME280;26823;42.662;23.352;2023-07-09T02:24:28;95172.69;;;18.13;61.87
41078;BME280;26823;42.662;23.352;2023-07-09T02:26:54;95177.31;;;18.13;61.71
41078;BME280;26823;42.662;23.352;2023-07-09T02:29:20;95182.19;;;18.16;61.64
41078;BME280;26823;42.662;23.352;2023-07-09T02:31:48;95188.44;;;18.16;62.22
41078;BME280;26823;42.662;23.352;2023-07-09T02:34:14;95198.09;;;18.14;63.47
41078;BME280;26823;42.662;23.352;2023-07-09T02:36:39;95186.41;;;17.90;64.84
41078;BME280;26823;42.662;23.352;2023-07-09T02:39:11;95209.09;;;17.91;66.08
41078;BME280;26823;42.662;23.352;2023-07-09T02:41:36;95209.03;;;17.73;67.53
41078;BME280;26823;42.662;23.352;2023-07-09T02:44:03;95203.28;;;17.52;68.73
41078;BME280;26823;42.662;23.352;2023-07-09T02:46:28;95207.41;;;17.41;69.52
41078;BME280;26823;42.662;23.352;2023-07-09T02:48:54;95227.97;;;17.38;69.98
41078;BME280;26823;42.662;23.352;2023-07-09T02:51:20;95221.16;;;17.27;71.17
41078;BME280;26823;42.662;23.352;2023-07-09T02:53:45;95203.31;;;17.07;72.14
41078;BME280;26823;42.662;23.352;2023-07-09T02:56:10;95227.47;;;17.14;72.66
41078;BME280;26823;42.662;23.352;2023-07-09T02:58:36;95221.16;;;17.04;73.57
41078;BME280;26823;42.662;23.352;2023-07-09T03:01:02;95226.22;;;16.97;74.03
41078;BME280;26823;42.662;23.352;2023-07-09T03:03:28;95236.25;;;17.02;74.13
41078;BME280;26823;42.662;23.352;2023-07-09T03:05:54;95229.16;;;16.87;74.72
41078;BME280;26823;42.662;23.352;2023-07-09T03:08:19;95200.19;;;16.63;75.61
41078;BME280;26823;42.662;23.352;2023-07-09T03:10:45;95231.63;;;16.74;75.71
41078;BME280;26823;42.662;23.352;2023-07-09T03:13:10;95239.81;;;16.74;76.31
41078;BME280;26823;42.662;23.352;2023-07-09T03:15:36;95238.72;;;16.75;76.79
41078;BME280;26823;42.662;23.352;2023-07-09T03:18:01;95231.38;;;16.62;77.16
41078;BME280;26823;42.662;23.352;2023-07-09T03:20:27;95232.19;;;16.62;76.96
41078;BME280;26823;42.662;23.352;2023-07-09T03:22:52;95238.03;;;16.70;77.06
41078;BME280;26823;42.662;23.352;2023-07-09T03:25:17;95235.91;;;16.67;77.01
41078;BME280;26823;42.662;23.352;2023-07-09T03:27:43;95228.34;;;16.63;77.14
41078;BME280;26823;42.662;23.352;2023-07-09T03:30:08;95242.31;;;16.62;77.71
41078;BME280;26823;42.662;23.352;2023-07-09T03:32:34;95225.41;;;16.60;77.84
41078;BME280;26823;42.662;23.352;2023-07-09T03:34:59;95234.19;;;16.71;78.27
41078;BME280;26823;42.662;23.352;2023-07-09T03:37:25;95233.06;;;16.72;78.30
41078;BME280;26823;42.662;23.352;2023-07-09T03:39:50;95240.03;;;16.78;78.82
41078;BME280;26823;42.662;23.352;2023-07-09T03:42:16;95226.47;;;16.73;79.21
41078;BME280;26823;42.662;23.352;2023-07-09T03:44:41;95232.44;;;16.75;79.14
41078;BME280;26823;42.662;23.352;2023-07-09T03:47:07;95238.91;;;16.79;79.41
41078;BME280;26823;42.662;23.352;2023-07-09T03:49:33;95247.25;;;17.10;78.30
41078;BME280;26823;42.662;23.352;2023-07-09T03:51:58;95252.03;;;17.27;77.41
41078;BME280;26823;42.662;23.352;2023-07-09T03:54:24;95251.19;;;17.72;75.02
41078;BME280;26823;42.662;23.352;2023-07-09T03:56:49;95232.69;;;18.01;72.76
41078;BME280;26823;42.662;23.352;2023-07-09T03:59:15;95240.34;;;17.90;73.20
41078;BME280;26823;42.662;23.352;2023-07-09T04:01:40;95243.47;;;17.74;74.76
41078;BME280;26823;42.662;23.352;2023-07-09T04:04:14;95261.25;;;17.63;75.78
41078;BME280;26823;42.662;23.352;2023-07-09T04:06:40;95258.19;;;17.56;75.46
41078;BME280;26823;42.662;23.352;2023-07-09T04:09:05;95260.06;;;17.78;74.83
41078;BME280;26823;42.662;23.352;2023-07-09T04:11:30;95245.34;;;17.65;75.98
41078;BME280;26823;42.662;23.352;2023-07-09T04:13:56;95267.41;;;17.69;76.25
41078;BME280;26823;42.662;23.352;2023-07-09T04:16:21;95245.88;;;17.44;77.30
41078;BME280;26823;42.662;23.352;2023-07-09T04:18:47;95260.22;;;17.50;77.87
41078;BME280;26823;42.662;23.352;2023-07-09T04:21:12;95271.97;;;17.51;78.04
41078;BME280;26823;42.662;23.352;2023-07-09T04:23:38;95267.63;;;17.50;78.25
41078;BME280;26823;42.662;23.352;2023-07-09T04:26:03;95256.81;;;17.44;77.07
41078;BME280;26823;42.662;23.352;2023-07-09T04:28:30;95274.25;;;17.57;77.26
41078;BME280;26823;42.662;23.352;2023-07-09T04:30:55;95264.88;;;17.50;76.57
41078;BME280;26823;42.662;23.352;2023-07-09T04:33:24;95270.22;;;17.55;76.76
41078;BME280;26823;42.662;23.352;2023-07-09T04:35:49;95280.41;;;17.63;76.32
41078;BME280;26823;42.662;23.352;2023-07-09T04:38:15;95282.22;;;17.68;75.24
41078;BME280;26823;42.662;23.352;2023-07-09T04:40:41;95281.47;;;17.76;74.98
41078;BME280;26823;42.662;23.352;2023-07-09T04:43:06;95283.78;;;17.91;74.58
41078;BME280;26823;42.662;23.352;2023-07-09T04:45:32;95272.09;;;18.00;74.34
41078;BME280;26823;42.662;23.352;2023-07-09T04:47:57;95272.53;;;17.93;74.57
41078;BME280;26823;42.662;23.352;2023-07-09T04:50:22;95252.81;;;17.73;75.39
41078;BME280;26823;42.662;23.352;2023-07-09T04:52:48;95276.16;;;17.80;75.67
41078;BME280;26823;42.662;23.352;2023-07-09T04:55:13;95251.59;;;17.57;76.48
41078;BME280;26823;42.662;23.352;2023-07-09T04:57:38;95275.94;;;17.67;76.54
41078;BME280;26823;42.662;23.352;2023-07-09T05:00:05;95285.94;;;17.72;76.55
41078;BME280;26823;42.662;23.352;2023-07-09T05:02:31;95275.94;;;17.67;76.95
41078;BME280;26823;42.662;23.352;2023-07-09T05:04:57;95282.59;;;17.75;77.08
41078;BME280;26823;42.662;23.352;2023-07-09T05:07:22;95293.88;;;17.82;74.92
41078;BME280;26823;42.662;23.352;2023-07-09T05:09:48;95264.72;;;17.77;74.79
41078;BME280;26823;42.662;23.352;2023-07-09T05:12:13;95286.59;;;18.00;74.58
41078;BME280;26823;42.662;23.352;2023-07-09T05:14:39;95289.09;;;18.19;74.74
41078;BME280;26823;42.662;23.352;2023-07-09T05:17:05;95290.13;;;18.32;73.99
41078;BME280;26823;42.662;23.352;2023-07-09T05:19:31;95294.03;;;18.49;74.55
41078;BME280;26823;42.662;23.352;2023-07-09T05:21:57;95284.59;;;18.64;74.86
41078;BME280;26823;42.662;23.352;2023-07-09T05:24:22;95290.78;;;18.96;72.36
41078;BME280;26823;42.662;23.352;2023-07-09T05:26:47;95297.91;;;19.32;70.67
41078;BME280;26823;42.662;23.352;2023-07-09T05:29:13;95289.38;;;19.51;67.73
41078;BME280;26823;42.662;23.352;2023-07-09T05:31:38;95302.56;;;19.75;67.28
41078;BME280;26823;42.662;23.352;2023-07-09T05:34:04;95298.72;;;19.85;68.15
41078;BME280;26823;42.662;23.352;2023-07-09T05:36:29;95296.25;;;19.83;66.25
41078;BME280;26823;42.662;23.352;2023-07-09T05:38:56;95303.72;;;19.83;67.35
41078;BME280;26823;42.662;23.352;2023-07-09T05:41:22;95301.44;;;19.85;64.83
41078;BME280;26823;42.662;23.352;2023-07-09T05:43:49;95284.63;;;19.78;64.18
41078;BME280;26823;42.662;23.352;2023-07-09T05:46:15;95291.25;;;19.94;63.78
41078;BME280;26823;42.662;23.352;2023-07-09T05:48:40;95306.69;;;20.08;62.63
41078;BME280;26823;42.662;23.352;2023-07-09T05:51:06;95294.13;;;20.07;61.69
41078;BME280;26823;42.662;23.352;2023-07-09T05:53:31;95293.75;;;20.17;60.89
41078;BME280;26823;42.662;23.352;2023-07-09T05:55:59;95286.00;;;20.19;59.80
41078;BME280;26823;42.662;23.352;2023-07-09T05:58:25;95243.94;;;19.88;61.23
41078;BME280;26823;42.662;23.352;2023-07-09T06:00:51;95302.59;;;20.31;59.34
41078;BME280;26823;42.662;23.352;2023-07-09T06:03:22;95304.22;;;20.32;59.98
41078;BME280;26823;42.662;23.352;2023-07-09T06:05:48;95301.78;;;20.31;59.36
41078;BME280;26823;42.662;23.352;2023-07-09T06:08:15;95289.84;;;20.27;60.45
41078;BME280;26823;42.662;23.352;2023-07-09T06:10:50;95285.31;;;20.31;59.75
41078;BME280;26823;42.662;23.352;2023-07-09T06:13:16;95279.34;;;20.29;59.15
41078;BME280;26823;42.662;23.352;2023-07-09T06:15:43;95289.50;;;20.37;58.58
41078;BME280;26823;42.662;23.352;2023-07-09T06:18:08;95279.66;;;20.27;58.82
41078;BME280;26823;42.662;23.352;2023-07-09T06:20:33;95282.56;;;20.31;59.23
41078;BME280;26823;42.662;23.352;2023-07-09T06:22:59;95288.66;;;20.36;58.58
41078;BME280;26823;42.662;23.352;2023-07-09T06:25:25;95290.41;;;20.50;59.16
41078;BME280;26823;42.662;23.352;2023-07-09T06:27:51;95275.88;;;20.41;60.21
41078;BME280;26823;42.662;23.352;2023-07-09T06:30:16;95292.47;;;20.53;59.82
41078;BME280;26823;42.662;23.352;2023-07-09T06:32:44;95281.63;;;20.57;62.06
41078;BME280;26823;42.662;23.352;2023-07-09T06:35:10;95287.81;;;20.83;61.07
41078;BME280;26823;42.662;23.352;2023-07-09T06:37:35;95265.03;;;20.83;59.17
41078;BME280;26823;42.662;23.352;2023-07-09T06:40:01;95291.19;;;20.89;58.83
41078;BME280;26823;42.662;23.352;2023-07-09T06:42:27;95279.06;;;20.90;58.29
41078;BME280;26823;42.662;23.352;2023-07-09T06:44:52;95280.44;;;20.96;57.53
41078;BME280;26823;42.662;23.352;2023-07-09T06:47:18;95272.53;;;20.95;59.93
41078;BME280;26823;42.662;23.352;2023-07-09T06:49:43;95271.69;;;21.03;58.86
41078;BME280;26823;42.662;23.352;2023-07-09T06:52:08;95265.84;;;21.05;58.29
41078;BME280;26823;42.662;23.352;2023-07-09T06:54:34;95276.25;;;21.20;57.08
41078;BME280;26823;42.662;23.352;2023-07-09T06:56:59;95283.44;;;21.33;55.73
41078;BME280;26823;42.662;23.352;2023-07-09T06:59:31;95278.38;;;21.35;54.37
41078;BME280;26823;42.662;23.352;2023-07-09T07:01:57;95279.19;;;21.36;55.09
41078;BME280;26823;42.662;23.352;2023-07-09T07:04:22;95267.84;;;21.38;55.34
41078;BME280;26823;42.662;23.352;2023-07-09T07:06:50;95268.13;;;21.45;57.98
41078;BME280;26823;42.662;23.352;2023-07-09T07:09:15;95285.28;;;21.63;55.64
41078;BME280;26823;42.662;23.352;2023-07-09T07:11:41;95285.47;;;21.79;54.24
41078;BME280;26823;42.662;23.352;2023-07-09T07:14:06;95243.44;;;21.57;54.51
41078;BME280;26823;42.662;23.352;2023-07-09T07:16:31;95286.09;;;21.97;54.36
41078;BME280;26823;42.662;23.352;2023-07-09T07:18:57;95267.41;;;22.03;52.12
41078;BME280;26823;42.662;23.352;2023-07-09T07:21:22;95289.69;;;22.10;51.13
41078;BME280;26823;42.662;23.352;2023-07-09T07:23:47;95224.44;;;21.77;51.73
41078;BME280;26823;42.662;23.352;2023-07-09T07:26:13;95261.88;;;22.03;52.77
41078;BME280;26823;42.662;23.352;2023-07-09T07:28:38;95257.66;;;22.05;52.38
41078;BME280;26823;42.662;23.352;2023-07-09T07:31:06;95272.13;;;22.14;51.88
41078;BME280;26823;42.662;23.352;2023-07-09T07:33:37;95273.16;;;22.10;52.23
41078;BME280;26823;42.662;23.352;2023-07-09T07:36:07;95270.19;;;22.15;52.86
41078;BME280;26823;42.662;23.352;2023-07-09T07:38:32;95267.56;;;22.19;54.45
41078;BME280;26823;42.662;23.352;2023-07-09T07:40:57;95258.50;;;22.18;52.36
41078;BME280;26823;42.662;23.352;2023-07-09T07:43:23;95255.50;;;22.23;52.03
41078;BME280;26823;42.662;23.352;2023-07-09T07:45:48;95250.44;;;22.25;53.45
41078;BME280;26823;42.662;23.352;2023-07-09T07:48:14;95262.53;;;22.45;53.81
41078;BME280;26823;42.662;23.352;2023-07-09T07:50:39;95251.53;;;22.45;52.87
41078;BME280;26823;42.662;23.352;2023-07-09T07:53:06;95251.06;;;22.56;53.55
41078;BME280;26823;42.662;23.352;2023-07-09T07:55:33;95275.97;;;22.84;51.69
41078;BME280;26823;42.662;23.352;2023-07-09T07:57:59;95264.91;;;22.96;50.80
41078;BME280;26823;42.662;23.352;2023-07-09T08:00:28;95238.41;;;22.92;49.12
41078;BME280;26823;42.662;23.352;2023-07-09T08:02:53;95266.09;;;22.95;50.67
41078;BME280;26823;42.662;23.352;2023-07-09T08:05:18;95265.59;;;23.06;52.24
41078;BME280;26823;42.662;23.352;2023-07-09T08:07:44;95254.09;;;23.16;50.40
41078;BME280;26823;42.662;23.352;2023-07-09T08:10:10;95254.88;;;23.29;48.50
41078;BME280;26823;42.662;23.352;2023-07-09T08:12:37;95252.94;;;23.29;47.94
41078;BME280;26823;42.662;23.352;2023-07-09T08:15:03;95252.47;;;23.27;48.59
41078;BME280;26823;42.662;23.352;2023-07-09T08:17:28;95244.31;;;23.31;47.58
41078;BME280;26823;42.662;23.352;2023-07-09T08:19:54;95245.91;;;23.32;47.79
41078;BME280;26823;42.662;23.352;2023-07-09T08:22:20;95234.25;;;23.39;49.50
41078;BME280;26823;42.662;23.352;2023-07-09T08:24:47;95237.66;;;23.48;49.33
41078;BME280;26823;42.662;23.352;2023-07-09T08:27:13;95234.84;;;23.60;47.11
41078;BME280;26823;42.662;23.352;2023-07-09T08:29:38;95248.16;;;23.71;49.21
41078;BME280;26823;42.662;23.352;2023-07-09T08:32:05;95240.97;;;23.82;48.56
41078;BME280;26823;42.662;23.352;2023-07-09T08:34:31;95234.81;;;23.89;48.26
41078;BME280;26823;42.662;23.352;2023-07-09T08:36:56;95235.41;;;23.94;48.22
41078;BME280;26823;42.662;23.352;2023-07-09T08:39:21;95239.50;;;24.01;46.02
41078;BME280;26823;42.662;23.352;2023-07-09T08:42:03;95252.78;;;24.11;46.25
41078;BME280;26823;42.662;23.352;2023-07-09T08:47:08;95240.47;;;24.24;46.39
41078;BME280;26823;42.662;23.352;2023-07-09T08:49:47;95230.78;;;24.31;46.26
41078;BME280;26823;42.662;23.352;2023-07-09T08:52:26;95242.00;;;24.38;47.16
41078;BME280;26823;42.662;23.352;2023-07-09T08:54:55;95244.13;;;24.45;47.20
41078;BME280;26823;42.662;23.352;2023-07-09T08:57:26;95227.03;;;24.39;46.39
41078;BME280;26823;42.662;23.352;2023-07-09T08:59:59;95231.47;;;24.59;46.13
41078;BME280;26823;42.662;23.352;2023-07-09T09:02:58;95252.38;;;24.73;46.03
41078;BME280;26823;42.662;23.352;2023-07-09T09:05:26;95257.69;;;24.82;45.95
41078;BME280;26823;42.662;23.352;2023-07-09T09:07:59;95238.34;;;24.82;46.80
41078;BME280;26823;42.662;23.352;2023-07-09T09:10:33;95227.03;;;24.71;46.70
41078;BME280;26823;42.662;23.352;2023-07-09T09:15:25;95251.84;;;25.03;45.95
41078;BME280;26823;42.662;23.352;2023-07-09T09:17:54;95252.78;;;25.11;46.59
41078;BME280;26823;42.662;23.352;2023-07-09T09:20:22;95238.94;;;25.11;45.43
41078;BME280;26823;42.662;23.352;2023-07-09T09:25:32;95224.66;;;24.89;44.72
41078;BME280;26823;42.662;23.352;2023-07-09T09:28:02;95246.47;;;25.10;46.26
41078;BME280;26823;42.662;23.352;2023-07-09T09:30:28;95244.22;;;25.16;45.83
41078;BME280;26823;42.662;23.352;2023-07-09T09:35:36;95225.00;;;25.23;43.96
41078;BME280;26823;42.662;23.352;2023-07-09T09:38:08;95229.38;;;25.24;45.15
41078;BME280;26823;42.662;23.352;2023-07-09T09:40:41;95230.97;;;25.25;45.34
41078;BME280;26823;42.662;23.352;2023-07-09T09:43:32;95240.16;;;25.29;45.50
41078;BME280;26823;42.662;23.352;2023-07-09T09:45:58;95226.97;;;25.22;43.91
41078;BME280;26823;42.662;23.352;2023-07-09T09:48:30;95222.59;;;25.21;44.83
41078;BME280;26823;42.662;23.352;2023-07-09T09:50:59;95225.50;;;25.29;45.13
41078;BME280;26823;42.662;23.352;2023-07-09T09:53:30;95225.75;;;25.39;44.95
41078;BME280;26823;42.662;23.352;2023-07-09T09:56:04;95223.13;;;25.47;42.84
41078;BME280;26823;42.662;23.352;2023-07-09T09:58:30;95222.75;;;25.48;43.21
41078;BME280;26823;42.662;23.352;2023-07-09T10:00:57;95219.63;;;25.50;43.13
41078;BME280;26823;42.662;23.352;2023-07-09T10:03:34;95206.38;;;25.39;42.01
41078;BME280;26823;42.662;23.352;2023-07-09T10:06:06;95218.75;;;25.46;44.58
41078;BME280;26823;42.662;23.352;2023-07-09T10:08:49;95206.44;;;25.43;45.04
41078;BME280;26823;42.662;23.352;2023-07-09T10:13:51;95216.69;;;25.62;43.84
41078;BME280;26823;42.662;23.352;2023-07-09T10:16:34;95214.53;;;25.71;42.29
41078;BME280;26823;42.662;23.352;2023-07-09T10:19:34;95206.94;;;25.68;43.59
41078;BME280;26823;42.662;23.352;2023-07-09T10:22:05;95194.19;;;25.64;42.32
41078;BME280;26823;42.662;23.352;2023-07-09T10:24:44;95212.84;;;25.67;42.19
41078;BME280;26823;42.662;23.352;2023-07-09T10:27:17;95194.06;;;25.56;42.60
41078;BME280;26823;42.662;23.352;2023-07-09T10:40:17;95206.84;;;25.84;40.79
41078;BME280;26823;42.662;23.352;2023-07-09T10:42:56;95201.72;;;25.86;41.22
41078;BME280;26823;42.662;23.352;2023-07-09T10:45:30;95164.03;;;25.59;42.75
41078;BME280;26823;42.662;23.352;2023-07-09T10:48:01;95199.84;;;25.91;39.80
41078;BME280;26823;42.662;23.352;2023-07-09T10:50:36;95183.00;;;25.80;39.35
41078;BME280;26823;42.662;23.352;2023-07-09T10:53:12;95191.53;;;25.91;39.27
41078;BME280;26823;42.662;23.352;2023-07-09T10:55:59;95187.88;;;25.86;40.66
41078;BME280;26823;42.662;23.352;2023-07-09T10:58:39;95193.03;;;26.08;40.61
41078;BME280;26823;42.662;23.352;2023-07-09T11:01:11;95200.09;;;26.05;40.24
41078;BME280;26823;42.662;23.352;2023-07-09T11:03:53;95188.13;;;26.01;39.43
41078;BME280;26823;42.662;23.352;2023-07-09T11:06:29;95190.09;;;26.00;39.45
41078;BME280;26823;42.662;23.352;2023-07-09T11:08:58;95187.75;;;26.02;40.52
41078;BME280;26823;42.662;23.352;2023-07-09T11:11:38;95198.63;;;26.11;39.98
41078;BME280;26823;42.662;23.352;2023-07-09T11:14:23;95192.56;;;26.05;39.73
41078;BME280;26823;42.662;23.352;2023-07-09T11:16:53;95184.78;;;26.11;37.72
41078;BME280;26823;42.662;23.352;2023-07-09T11:19:20;95187.53;;;26.11;39.46
41078;BME280;26823;42.662;23.352;2023-07-09T11:22:22;95194.97;;;26.30;37.90
41078;BME280;26823;42.662;23.352;2023-07-09T11:24:51;95197.06;;;26.37;37.63
41078;BME280;26823;42.662;23.352;2023-07-09T11:27:26;95191.72;;;26.25;35.66
41078;BME280;26823;42.662;23.352;2023-07-09T11:30:16;95193.97;;;26.42;37.63
41078;BME280;26823;42.662;23.352;2023-07-09T11:32:47;95196.34;;;26.40;37.58
41078;BME280;26823;42.662;23.352;2023-07-09T11:35:21;95190.22;;;26.54;38.49
41078;BME280;26823;42.662;23.352;2023-07-09T11:37:47;95184.75;;;26.61;36.83
41078;BME280;26823;42.662;23.352;2023-07-09T11:40:14;95176.09;;;26.63;35.97
41078;BME280;26823;42.662;23.352;2023-07-09T11:42:56;95190.03;;;26.70;36.45
41078;BME280;26823;42.662;23.352;2023-07-09T11:45:32;95171.94;;;26.76;36.84
41078;BME280;26823;42.662;23.352;2023-07-09T11:48:25;95177.59;;;26.83;38.07
41078;BME280;26823;42.662;23.352;2023-07-09T11:50:52;95172.88;;;26.88;37.41
41078;BME280;26823;42.662;23.352;2023-07-09T11:53:30;95180.81;;;26.89;37.71
41078;BME280;26823;42.662;23.352;2023-07-09T11:56:00;95175.84;;;27.02;38.13
41078;BME280;26823;42.662;23.352;2023-07-09T11:58:25;95164.31;;;27.00;37.42
41078;BME280;26823;42.662;23.352;2023-07-09T12:00:53;95172.75;;;27.07;37.81
41078;BME280;26823;42.662;23.352;2023-07-09T12:03:25;95151.25;;;27.00;37.38
41078;BME280;26823;42.662;23.352;2023-07-09T12:05:54;95173.50;;;27.04;37.20
41078;BME280;26823;42.662;23.352;2023-07-09T12:08:27;95159.66;;;27.08;37.43
41078;BME280;26823;42.662;23.352;2023-07-09T12:10:54;95165.50;;;26.99;38.53
41078;BME280;26823;42.662;23.352;2023-07-09T12:13:19;95145.97;;;26.92;37.71
41078;BME280;26823;42.662;23.352;2023-07-09T12:15:46;95151.06;;;26.86;38.26
41078;BME280;26823;42.662;23.352;2023-07-09T12:18:14;95163.00;;;26.90;38.26
41078;BME280;26823;42.662;23.352;2023-07-09T12:20:41;95152.28;;;26.89;38.97
41078;BME280;26823;42.662;23.352;2023-07-09T12:23:30;95166.34;;;27.03;38.74
41078;BME280;26823;42.662;23.352;2023-07-09T12:26:00;95162.53;;;27.15;38.67
41078;BME280;26823;42.662;23.352;2023-07-09T12:28:27;95145.34;;;27.06;38.42
41078;BME280;26823;42.662;23.352;2023-07-09T12:30:54;95142.25;;;27.11;38.02
41078;BME280;26823;42.662;23.352;2023-07-09T12:33:25;95146.91;;;27.03;37.28
41078;BME280;26823;42.662;23.352;2023-07-09T12:35:59;95152.38;;;26.96;37.90
41078;BME280;26823;42.662;23.352;2023-07-09T12:38:30;95121.66;;;26.81;37.76
41078;BME280;26823;42.662;23.352;2023-07-09T12:41:00;95149.19;;;26.94;38.60
41078;BME280;26823;42.662;23.352;2023-07-09T12:43:28;95103.69;;;26.72;39.60
41078;BME280;26823;42.662;23.352;2023-07-09T12:45:57;95129.97;;;26.81;39.57
41078;BME280;26823;42.662;23.352;2023-07-09T12:48:25;95142.84;;;26.97;38.75
41078;BME280;26823;42.662;23.352;2023-07-09T12:50:55;95134.53;;;26.97;38.56
41078;BME280;26823;42.662;23.352;2023-07-09T12:53:24;95133.91;;;27.07;38.76
41078;BME280;26823;42.662;23.352;2023-07-09T12:55:55;95137.06;;;27.09;38.71
41078;BME280;26823;42.662;23.352;2023-07-09T12:58:24;95138.25;;;27.08;38.52
41078;BME280;26823;42.662;23.352;2023-07-09T13:00:52;95134.22;;;27.02;38.04
41078;BME280;26823;42.662;23.352;2023-07-09T13:03:21;95131.84;;;27.04;37.80
41078;BME280;26823;42.662;23.352;2023-07-09T13:06:26;95137.84;;;27.06;38.03
41078;BME280;26823;42.662;23.352;2023-07-09T13:08:59;95139.78;;;27.02;38.21
41078;BME280;26823;42.662;23.352;2023-07-09T13:11:25;95130.53;;;26.94;39.31
41078;BME280;26823;42.662;23.352;2023-07-09T13:13:59;95136.06;;;26.91;39.12
41078;BME280;26823;42.662;23.352;2023-07-09T13:16:25;95128.53;;;26.91;38.52
41078;BME280;26823;42.662;23.352;2023-07-09T13:18:51;95125.09;;;27.01;39.09
41078;BME280;26823;42.662;23.352;2023-07-09T13:21:18;95127.03;;;26.97;39.20
41078;BME280;26823;42.662;23.352;2023-07-09T13:23:44;95133.75;;;26.96;39.29
41078;BME280;26823;42.662;23.352;2023-07-09T13:26:09;95136.56;;;27.00;39.53
41078;BME280;26823;42.662;23.352;2023-07-09T13:28:35;95135.03;;;27.02;39.67